sensor_id;sensor_type;location;lat;lon;timestamp;P1;durP1;ratioP1;P2;durP2;ratioP2
67819;SDS011;54618;52.018;5.576;2022-10-28T00:00:30;3.72;;;2.53;;
67819;SDS011;54618;52.018;5.576;2022-10-28T00:02:58;4.05;;;2.42;;
67819;SDS011;54618;52.018;5.576;2022-10-28T00:05:24;5.18;;;2.72;;
67819;SDS011;54618;52.018;5.576;2022-10-28T00:07:50;6.43;;;2.78;;
67819;SDS011;54618;52.018;5.576;2022-10-28T00:10:15;4.32;;;2.35;;
67819;SDS011;54618;52.018;5.576;2022-10-28T00:12:41;6.13;;;2.65;;
67819;SDS011;54618;52.018;5.576;2022-10-28T00:15:06;5.35;;;2.67;;
67819;SDS011;54618;52.018;5.576;2022-10-28T00:17:33;6.63;;;2.60;;
67819;SDS011;54618;52.018;5.576;2022-10-28T00:19:58;5.90;;;2.80;;
67819;SDS011;54618;52.018;5.576;2022-10-28T00:22:24;6.65;;;2.90;;
67819;SDS011;54618;52.018;5.576;2022-10-28T00:24:49;5.60;;;3.00;;
67819;SDS011;54618;52.018;5.576;2022-10-28T00:27:14;6.32;;;2.80;;
67819;SDS011;54618;52.018;5.576;2022-10-28T00:29:40;6.97;;;2.83;;
67819;SDS011;54618;52.018;5.576;2022-10-28T00:32:06;6.10;;;2.60;;
67819;SDS011;54618;52.018;5.576;2022-10-28T00:34:31;4.53;;;2.50;;
67819;SDS011;54618;52.018;5.576;2022-10-28T00:36:57;5.35;;;2.92;;
67819;SDS011;54618;52.018;5.576;2022-10-28T00:39:23;4.43;;;2.53;;
67819;SDS011;54618;52.018;5.576;2022-10-28T00:41:51;6.18;;;2.60;;
67819;SDS011;54618;52.018;5.576;2022-10-28T00:47:32;4.78;;;2.63;;
67819;SDS011;54618;52.018;5.576;2022-10-28T00:52:57;6.13;;;2.70;;
67819;SDS011;54618;52.018;5.576;2022-10-28T00:55:26;4.78;;;2.78;;
67819;SDS011;54618;52.018;5.576;2022-10-28T00:57:53;5.18;;;2.92;;
67819;SDS011;54618;52.018;5.576;2022-10-28T01:00:20;4.55;;;2.65;;
67819;SDS011;54618;52.018;5.576;2022-10-28T01:02:48;5.35;;;2.70;;
67819;SDS011;54618;52.018;5.576;2022-10-28T01:05:15;5.72;;;2.50;;
67819;SDS011;54618;52.018;5.576;2022-10-28T01:07:44;5.38;;;2.72;;
67819;SDS011;54618;52.018;5.576;2022-10-28T01:10:10;6.05;;;2.67;;
67819;SDS011;54618;52.018;5.576;2022-10-28T01:15:35;6.65;;;2.83;;
67819;SDS011;54618;52.018;5.576;2022-10-28T01:21:07;5.00;;;2.60;;
67819;SDS011;54618;52.018;5.576;2022-10-28T01:29:59;6.43;;;2.97;;
67819;SDS011;54618;52.018;5.576;2022-10-28T01:32:49;6.07;;;3.05;;
67819;SDS011;54618;52.018;5.576;2022-10-28T01:38:29;5.50;;;3.10;;
67819;SDS011;54618;52.018;5.576;2022-10-28T01:41:14;4.38;;;2.83;;
67819;SDS011;54618;52.018;5.576;2022-10-28T01:44:12;6.25;;;3.03;;
67819;SDS011;54618;52.018;5.576;2022-10-28T01:46:46;6.97;;;3.67;;
67819;SDS011;54618;52.018;5.576;2022-10-28T01:49:35;6.15;;;2.63;;
67819;SDS011;54618;52.018;5.576;2022-10-28T01:52:11;6.32;;;2.90;;
67819;SDS011;54618;52.018;5.576;2022-10-28T01:54:39;5.80;;;2.85;;
67819;SDS011;54618;52.018;5.576;2022-10-28T01:57:08;5.80;;;2.67;;
67819;SDS011;54618;52.018;5.576;2022-10-28T01:59:37;5.38;;;2.80;;
67819;SDS011;54618;52.018;5.576;2022-10-28T02:02:05;5.25;;;3.00;;
67819;SDS011;54618;52.018;5.576;2022-10-28T02:04:30;5.00;;;2.78;;
67819;SDS011;54618;52.018;5.576;2022-10-28T02:06:56;7.30;;;3.10;;
67819;SDS011;54618;52.018;5.576;2022-10-28T02:12:22;4.87;;;2.80;;
67819;SDS011;54618;52.018;5.576;2022-10-28T02:20:52;6.07;;;2.65;;
67819;SDS011;54618;52.018;5.576;2022-10-28T02:23:24;5.93;;;3.00;;
67819;SDS011;54618;52.018;5.576;2022-10-28T02:26:05;6.72;;;2.92;;
67819;SDS011;54618;52.018;5.576;2022-10-28T02:28:40;5.57;;;3.22;;
67819;SDS011;54618;52.018;5.576;2022-10-28T02:31:31;5.18;;;2.63;;
67819;SDS011;54618;52.018;5.576;2022-10-28T02:34:08;5.60;;;2.50;;
67819;SDS011;54618;52.018;5.576;2022-10-28T02:36:39;5.47;;;2.72;;
67819;SDS011;54618;52.018;5.576;2022-10-28T02:39:08;4.95;;;2.65;;
67819;SDS011;54618;52.018;5.576;2022-10-28T02:41:43;7.32;;;2.85;;
67819;SDS011;54618;52.018;5.576;2022-10-28T02:44:19;4.35;;;2.60;;
67819;SDS011;54618;52.018;5.576;2022-10-28T02:46:50;5.72;;;2.90;;
67819;SDS011;54618;52.018;5.576;2022-10-28T02:49:18;5.22;;;2.60;;
67819;SDS011;54618;52.018;5.576;2022-10-28T02:52:02;5.40;;;2.83;;
67819;SDS011;54618;52.018;5.576;2022-10-28T02:54:41;5.50;;;2.85;;
67819;SDS011;54618;52.018;5.576;2022-10-28T02:57:13;5.10;;;2.80;;
67819;SDS011;54618;52.018;5.576;2022-10-28T02:59:41;4.10;;;2.80;;
67819;SDS011;54618;52.018;5.576;2022-10-28T03:02:07;4.60;;;2.30;;
67819;SDS011;54618;52.018;5.576;2022-10-28T03:04:34;5.93;;;2.63;;
67819;SDS011;54618;52.018;5.576;2022-10-28T03:07:00;5.28;;;2.58;;
67819;SDS011;54618;52.018;5.576;2022-10-28T03:09:25;4.20;;;2.67;;
67819;SDS011;54618;52.018;5.576;2022-10-28T03:11:51;5.53;;;2.80;;
67819;SDS011;54618;52.018;5.576;2022-10-28T03:14:16;4.95;;;2.60;;
67819;SDS011;54618;52.018;5.576;2022-10-28T03:16:41;5.38;;;2.72;;
67819;SDS011;54618;52.018;5.576;2022-10-28T03:19:07;5.85;;;2.63;;
67819;SDS011;54618;52.018;5.576;2022-10-28T03:21:33;4.95;;;3.03;;
67819;SDS011;54618;52.018;5.576;2022-10-28T03:23:58;6.47;;;2.85;;
67819;SDS011;54618;52.018;5.576;2022-10-28T03:26:24;5.07;;;2.90;;
67819;SDS011;54618;52.018;5.576;2022-10-28T03:28:49;5.18;;;2.50;;
67819;SDS011;54618;52.018;5.576;2022-10-28T03:31:15;6.65;;;2.67;;
67819;SDS011;54618;52.018;5.576;2022-10-28T03:33:41;6.88;;;2.50;;
67819;SDS011;54618;52.018;5.576;2022-10-28T03:36:06;6.75;;;2.97;;
67819;SDS011;54618;52.018;5.576;2022-10-28T03:38:32;6.32;;;3.30;;
67819;SDS011;54618;52.018;5.576;2022-10-28T03:40:57;5.72;;;2.70;;
67819;SDS011;54618;52.018;5.576;2022-10-28T03:43:23;6.45;;;2.90;;
67819;SDS011;54618;52.018;5.576;2022-10-28T03:45:48;5.72;;;3.03;;
67819;SDS011;54618;52.018;5.576;2022-10-28T03:48:14;6.60;;;3.00;;
67819;SDS011;54618;52.018;5.576;2022-10-28T03:50:40;5.13;;;2.72;;
67819;SDS011;54618;52.018;5.576;2022-10-28T03:53:05;6.50;;;2.92;;
67819;SDS011;54618;52.018;5.576;2022-10-28T03:55:31;5.88;;;2.90;;
67819;SDS011;54618;52.018;5.576;2022-10-28T03:57:58;4.15;;;2.70;;
67819;SDS011;54618;52.018;5.576;2022-10-28T04:00:25;6.95;;;2.88;;
67819;SDS011;54618;52.018;5.576;2022-10-28T04:02:50;7.40;;;3.20;;
67819;SDS011;54618;52.018;5.576;2022-10-28T04:05:17;6.72;;;2.80;;
67819;SDS011;54618;52.018;5.576;2022-10-28T04:07:43;5.65;;;2.83;;
67819;SDS011;54618;52.018;5.576;2022-10-28T04:10:09;6.88;;;3.22;;
67819;SDS011;54618;52.018;5.576;2022-10-28T04:12:35;6.25;;;3.00;;
67819;SDS011;54618;52.018;5.576;2022-10-28T04:15:01;5.28;;;2.80;;
67819;SDS011;54618;52.018;5.576;2022-10-28T04:17:26;4.25;;;2.75;;
67819;SDS011;54618;52.018;5.576;2022-10-28T04:19:52;5.25;;;2.90;;
67819;SDS011;54618;52.018;5.576;2022-10-28T04:22:18;5.45;;;2.80;;
67819;SDS011;54618;52.018;5.576;2022-10-28T04:24:43;5.53;;;2.72;;
67819;SDS011;54618;52.018;5.576;2022-10-28T04:27:09;6.72;;;2.80;;
67819;SDS011;54618;52.018;5.576;2022-10-28T04:29:35;7.30;;;3.00;;
67819;SDS011;54618;52.018;5.576;2022-10-28T04:32:00;7.25;;;3.00;;
67819;SDS011;54618;52.018;5.576;2022-10-28T04:34:26;6.55;;;2.80;;
67819;SDS011;54618;52.018;5.576;2022-10-28T04:36:51;6.35;;;2.97;;
67819;SDS011;54618;52.018;5.576;2022-10-28T04:39:17;5.55;;;2.80;;
67819;SDS011;54618;52.018;5.576;2022-10-28T04:41:42;7.35;;;3.20;;
67819;SDS011;54618;52.018;5.576;2022-10-28T04:44:08;6.25;;;3.28;;
67819;SDS011;54618;52.018;5.576;2022-10-28T04:46:34;5.72;;;3.00;;
67819;SDS011;54618;52.018;5.576;2022-10-28T04:48:59;5.75;;;2.90;;
67819;SDS011;54618;52.018;5.576;2022-10-28T04:51:25;5.63;;;2.88;;
67819;SDS011;54618;52.018;5.576;2022-10-28T04:53:50;6.32;;;3.03;;
67819;SDS011;54618;52.018;5.576;2022-10-28T04:56:16;7.75;;;3.20;;
67819;SDS011;54618;52.018;5.576;2022-10-28T04:58:41;5.50;;;3.10;;
67819;SDS011;54618;52.018;5.576;2022-10-28T05:01:07;5.78;;;2.97;;
67819;SDS011;54618;52.018;5.576;2022-10-28T05:03:34;4.75;;;2.72;;
67819;SDS011;54618;52.018;5.576;2022-10-28T05:06:00;5.95;;;3.00;;
67819;SDS011;54618;52.018;5.576;2022-10-28T05:08:26;5.65;;;2.60;;
67819;SDS011;54618;52.018;5.576;2022-10-28T05:10:52;5.55;;;2.95;;
67819;SDS011;54618;52.018;5.576;2022-10-28T05:13:17;6.20;;;2.85;;
67819;SDS011;54618;52.018;5.576;2022-10-28T05:15:43;8.43;;;3.00;;
67819;SDS011;54618;52.018;5.576;2022-10-28T05:18:09;4.82;;;2.70;;
67819;SDS011;54618;52.018;5.576;2022-10-28T05:20:35;5.28;;;2.63;;
67819;SDS011;54618;52.018;5.576;2022-10-28T05:23:00;5.35;;;2.67;;
67819;SDS011;54618;52.018;5.576;2022-10-28T05:25:26;7.38;;;2.70;;
67819;SDS011;54618;52.018;5.576;2022-10-28T05:27:51;6.40;;;3.00;;
67819;SDS011;54618;52.018;5.576;2022-10-28T05:30:17;6.38;;;3.47;;
67819;SDS011;54618;52.018;5.576;2022-10-28T05:32:44;4.60;;;2.92;;
67819;SDS011;54618;52.018;5.576;2022-10-28T05:35:10;6.63;;;3.00;;
67819;SDS011;54618;52.018;5.576;2022-10-28T05:37:35;5.75;;;2.65;;
67819;SDS011;54618;52.018;5.576;2022-10-28T05:40:02;5.80;;;2.65;;
67819;SDS011;54618;52.018;5.576;2022-10-28T05:42:27;6.28;;;3.10;;
67819;SDS011;54618;52.018;5.576;2022-10-28T05:44:53;5.38;;;2.63;;
67819;SDS011;54618;52.018;5.576;2022-10-28T05:47:18;6.15;;;2.70;;
67819;SDS011;54618;52.018;5.576;2022-10-28T05:49:44;5.35;;;2.72;;
67819;SDS011;54618;52.018;5.576;2022-10-28T05:52:09;5.65;;;2.80;;
67819;SDS011;54618;52.018;5.576;2022-10-28T05:54:35;5.25;;;2.50;;
67819;SDS011;54618;52.018;5.576;2022-10-28T05:57:00;7.22;;;3.20;;
67819;SDS011;54618;52.018;5.576;2022-10-28T05:59:26;5.60;;;3.05;;
67819;SDS011;54618;52.018;5.576;2022-10-28T06:01:51;6.47;;;3.03;;
67819;SDS011;54618;52.018;5.576;2022-10-28T06:04:17;7.43;;;2.78;;
67819;SDS011;54618;52.018;5.576;2022-10-28T06:06:42;6.47;;;2.70;;
67819;SDS011;54618;52.018;5.576;2022-10-28T06:09:08;5.45;;;2.55;;
67819;SDS011;54618;52.018;5.576;2022-10-28T06:11:34;3.80;;;2.42;;
67819;SDS011;54618;52.018;5.576;2022-10-28T06:13:59;5.38;;;2.90;;
67819;SDS011;54618;52.018;5.576;2022-10-28T06:16:25;7.28;;;3.03;;
67819;SDS011;54618;52.018;5.576;2022-10-28T06:18:51;7.93;;;2.90;;
67819;SDS011;54618;52.018;5.576;2022-10-28T06:21:16;7.15;;;3.40;;
67819;SDS011;54618;52.018;5.576;2022-10-28T06:23:42;7.85;;;3.20;;
67819;SDS011;54618;52.018;5.576;2022-10-28T06:26:07;5.78;;;2.75;;
67819;SDS011;54618;52.018;5.576;2022-10-28T06:28:33;5.90;;;2.83;;
67819;SDS011;54618;52.018;5.576;2022-10-28T06:31:06;6.05;;;2.85;;
67819;SDS011;54618;52.018;5.576;2022-10-28T06:33:33;6.63;;;2.65;;
67819;SDS011;54618;52.018;5.576;2022-10-28T06:35:59;8.02;;;3.17;;
67819;SDS011;54618;52.018;5.576;2022-10-28T06:38:25;6.85;;;3.05;;
67819;SDS011;54618;52.018;5.576;2022-10-28T06:40:51;5.18;;;2.92;;
67819;SDS011;54618;52.018;5.576;2022-10-28T06:43:17;3.90;;;2.60;;
67819;SDS011;54618;52.018;5.576;2022-10-28T06:45:42;6.72;;;2.85;;
67819;SDS011;54618;52.018;5.576;2022-10-28T06:48:10;6.20;;;2.55;;
67819;SDS011;54618;52.018;5.576;2022-10-28T06:50:36;5.45;;;2.67;;
67819;SDS011;54618;52.018;5.576;2022-10-28T06:53:02;6.22;;;2.80;;
67819;SDS011;54618;52.018;5.576;2022-10-28T06:55:28;6.32;;;2.83;;
67819;SDS011;54618;52.018;5.576;2022-10-28T06:57:57;5.68;;;2.75;;
67819;SDS011;54618;52.018;5.576;2022-10-28T07:00:24;5.25;;;2.67;;
67819;SDS011;54618;52.018;5.576;2022-10-28T07:02:51;4.70;;;2.65;;
67819;SDS011;54618;52.018;5.576;2022-10-28T07:05:17;5.85;;;2.83;;
67819;SDS011;54618;52.018;5.576;2022-10-28T07:07:42;5.30;;;2.58;;
67819;SDS011;54618;52.018;5.576;2022-10-28T07:10:08;5.85;;;2.60;;
67819;SDS011;54618;52.018;5.576;2022-10-28T07:12:34;8.07;;;3.28;;
67819;SDS011;54618;52.018;5.576;2022-10-28T07:14:59;6.15;;;2.83;;
67819;SDS011;54618;52.018;5.576;2022-10-28T07:17:25;8.50;;;2.88;;
67819;SDS011;54618;52.018;5.576;2022-10-28T07:19:51;5.70;;;2.72;;
67819;SDS011;54618;52.018;5.576;2022-10-28T07:22:16;6.78;;;2.75;;
67819;SDS011;54618;52.018;5.576;2022-10-28T07:24:42;4.43;;;2.50;;
67819;SDS011;54618;52.018;5.576;2022-10-28T07:27:07;9.07;;;3.15;;
67819;SDS011;54618;52.018;5.576;2022-10-28T07:29:33;5.60;;;3.00;;
67819;SDS011;54618;52.018;5.576;2022-10-28T07:31:58;7.80;;;2.67;;
67819;SDS011;54618;52.018;5.576;2022-10-28T07:34:24;5.82;;;2.80;;
67819;SDS011;54618;52.018;5.576;2022-10-28T07:36:51;5.05;;;2.75;;
67819;SDS011;54618;52.018;5.576;2022-10-28T07:39:17;5.78;;;2.83;;
67819;SDS011;54618;52.018;5.576;2022-10-28T07:41:43;4.53;;;2.60;;
67819;SDS011;54618;52.018;5.576;2022-10-28T07:44:08;5.90;;;2.70;;
67819;SDS011;54618;52.018;5.576;2022-10-28T07:46:35;9.02;;;2.97;;
67819;SDS011;54618;52.018;5.576;2022-10-28T07:49:00;7.65;;;2.88;;
67819;SDS011;54618;52.018;5.576;2022-10-28T07:51:26;5.72;;;2.95;;
67819;SDS011;54618;52.018;5.576;2022-10-28T07:53:51;7.97;;;3.00;;
67819;SDS011;54618;52.018;5.576;2022-10-28T07:56:17;7.95;;;2.88;;
67819;SDS011;54618;52.018;5.576;2022-10-28T07:58:43;6.95;;;2.63;;
67819;SDS011;54618;52.018;5.576;2022-10-28T08:01:10;8.27;;;2.72;;
67819;SDS011;54618;52.018;5.576;2022-10-28T08:03:37;6.72;;;3.30;;
67819;SDS011;54618;52.018;5.576;2022-10-28T08:06:04;6.72;;;2.88;;
67819;SDS011;54618;52.018;5.576;2022-10-28T08:08:35;4.93;;;2.50;;
67819;SDS011;54618;52.018;5.576;2022-10-28T08:11:11;5.80;;;2.70;;
67819;SDS011;54618;52.018;5.576;2022-10-28T08:13:38;6.72;;;3.05;;
67819;SDS011;54618;52.018;5.576;2022-10-28T08:16:04;6.60;;;2.83;;
67819;SDS011;54618;52.018;5.576;2022-10-28T08:18:30;5.40;;;2.97;;
67819;SDS011;54618;52.018;5.576;2022-10-28T08:20:59;5.65;;;2.60;;
67819;SDS011;54618;52.018;5.576;2022-10-28T08:23:26;5.60;;;2.67;;
67819;SDS011;54618;52.018;5.576;2022-10-28T08:25:52;5.43;;;2.65;;
67819;SDS011;54618;52.018;5.576;2022-10-28T08:28:17;8.40;;;3.03;;
67819;SDS011;54618;52.018;5.576;2022-10-28T08:30:43;7.20;;;2.97;;
67819;SDS011;54618;52.018;5.576;2022-10-28T08:33:10;5.05;;;2.63;;
67819;SDS011;54618;52.018;5.576;2022-10-28T08:35:36;5.60;;;2.95;;
67819;SDS011;54618;52.018;5.576;2022-10-28T08:38:02;5.10;;;2.72;;
67819;SDS011;54618;52.018;5.576;2022-10-28T08:40:34;8.50;;;3.33;;
67819;SDS011;54618;52.018;5.576;2022-10-28T08:43:04;5.28;;;2.58;;
67819;SDS011;54618;52.018;5.576;2022-10-28T08:51:04;7.07;;;2.90;;
67819;SDS011;54618;52.018;5.576;2022-10-28T08:53:55;7.68;;;2.95;;
67819;SDS011;54618;52.018;5.576;2022-10-28T08:58:57;5.82;;;3.10;;
67819;SDS011;54618;52.018;5.576;2022-10-28T09:01:44;8.15;;;3.40;;
67819;SDS011;54618;52.018;5.576;2022-10-28T09:04:35;8.35;;;3.63;;
67819;SDS011;54618;52.018;5.576;2022-10-28T09:07:01;6.70;;;3.28;;
67819;SDS011;54618;52.018;5.576;2022-10-28T09:09:27;7.10;;;3.03;;
67819;SDS011;54618;52.018;5.576;2022-10-28T09:12:05;5.95;;;2.80;;
67819;SDS011;54618;52.018;5.576;2022-10-28T09:17:51;8.95;;;3.28;;
67819;SDS011;54618;52.018;5.576;2022-10-28T09:20:42;6.85;;;3.03;;
67819;SDS011;54618;52.018;5.576;2022-10-28T09:23:20;6.00;;;2.92;;
67819;SDS011;54618;52.018;5.576;2022-10-28T09:26:05;6.55;;;2.63;;
67819;SDS011;54618;52.018;5.576;2022-10-28T09:37:12;6.80;;;3.22;;
67819;SDS011;54618;52.018;5.576;2022-10-28T09:39:58;6.25;;;2.80;;
67819;SDS011;54618;52.018;5.576;2022-10-28T09:42:28;7.13;;;3.00;;
67819;SDS011;54618;52.018;5.576;2022-10-28T09:47:55;5.15;;;2.90;;
67819;SDS011;54618;52.018;5.576;2022-10-28T09:50:29;7.65;;;3.10;;
67819;SDS011;54618;52.018;5.576;2022-10-28T09:55:24;5.47;;;2.60;;
67819;SDS011;54618;52.018;5.576;2022-10-28T09:57:50;8.10;;;2.80;;
67819;SDS011;54618;52.018;5.576;2022-10-28T10:00:16;8.13;;;3.10;;
67819;SDS011;54618;52.018;5.576;2022-10-28T10:02:41;7.78;;;2.80;;
67819;SDS011;54618;52.018;5.576;2022-10-28T10:05:12;4.68;;;2.40;;
67819;SDS011;54618;52.018;5.576;2022-10-28T10:07:49;7.20;;;2.88;;
67819;SDS011;54618;52.018;5.576;2022-10-28T10:10:22;5.18;;;2.60;;
67819;SDS011;54618;52.018;5.576;2022-10-28T10:12:51;6.63;;;2.70;;
67819;SDS011;54618;52.018;5.576;2022-10-28T10:15:26;6.75;;;3.03;;
67819;SDS011;54618;52.018;5.576;2022-10-28T10:17:58;12.13;;;3.63;;
67819;SDS011;54618;52.018;5.576;2022-10-28T10:20:26;9.05;;;3.08;;
67819;SDS011;54618;52.018;5.576;2022-10-28T10:22:52;7.78;;;3.10;;
67819;SDS011;54618;52.018;5.576;2022-10-28T10:28:05;12.68;;;3.40;;
67819;SDS011;54618;52.018;5.576;2022-10-28T10:30:49;13.57;;;3.85;;
67819;SDS011;54618;52.018;5.576;2022-10-28T10:33:18;9.55;;;3.50;;
67819;SDS011;54618;52.018;5.576;2022-10-28T10:35:54;9.10;;;3.53;;
67819;SDS011;54618;52.018;5.576;2022-10-28T10:38:37;13.27;;;3.40;;
67819;SDS011;54618;52.018;5.576;2022-10-28T10:44:00;9.55;;;3.05;;
67819;SDS011;54618;52.018;5.576;2022-10-28T10:46:46;10.77;;;3.33;;
67819;SDS011;54618;52.018;5.576;2022-10-28T10:49:24;9.85;;;2.85;;
67819;SDS011;54618;52.018;5.576;2022-10-28T10:51:57;9.25;;;3.15;;
67819;SDS011;54618;52.018;5.576;2022-10-28T10:54:25;9.75;;;3.88;;
67819;SDS011;54618;52.018;5.576;2022-10-28T10:56:54;8.65;;;3.35;;
67819;SDS011;54618;52.018;5.576;2022-10-28T10:59:32;8.10;;;3.47;;
67819;SDS011;54618;52.018;5.576;2022-10-28T11:02:01;8.20;;;2.72;;
67819;SDS011;54618;52.018;5.576;2022-10-28T11:04:28;9.63;;;3.30;;
67819;SDS011;54618;52.018;5.576;2022-10-28T11:06:55;7.90;;;3.13;;
67819;SDS011;54618;52.018;5.576;2022-10-28T11:09:34;7.15;;;3.17;;
67819;SDS011;54618;52.018;5.576;2022-10-28T11:14:42;7.50;;;3.00;;
67819;SDS011;54618;52.018;5.576;2022-10-28T11:17:23;7.70;;;3.35;;
67819;SDS011;54618;52.018;5.576;2022-10-28T11:19:52;6.32;;;2.83;;
67819;SDS011;54618;52.018;5.576;2022-10-28T11:25:31;9.32;;;3.03;;
67819;SDS011;54618;52.018;5.576;2022-10-28T11:33:28;6.65;;;2.83;;
67819;SDS011;54618;52.018;5.576;2022-10-28T11:36:22;8.52;;;2.80;;
67819;SDS011;54618;52.018;5.576;2022-10-28T11:39:12;5.20;;;2.75;;
67819;SDS011;54618;52.018;5.576;2022-10-28T11:41:59;5.32;;;2.80;;
67819;SDS011;54618;52.018;5.576;2022-10-28T12:06:21;8.05;;;3.05;;
67819;SDS011;54618;52.018;5.576;2022-10-28T12:09:37;11.48;;;3.15;;
67819;SDS011;54618;52.018;5.576;2022-10-28T12:14:58;9.60;;;3.00;;
67819;SDS011;54618;52.018;5.576;2022-10-28T12:23:02;7.18;;;2.95;;
67819;SDS011;54618;52.018;5.576;2022-10-28T12:25:34;12.35;;;2.83;;
67819;SDS011;54618;52.018;5.576;2022-10-28T12:30:47;9.88;;;3.25;;
67819;SDS011;54618;52.018;5.576;2022-10-28T12:33:38;6.85;;;3.20;;
67819;SDS011;54618;52.018;5.576;2022-10-28T12:38:44;7.55;;;2.80;;
67819;SDS011;54618;52.018;5.576;2022-10-28T12:41:21;7.75;;;3.40;;
67819;SDS011;54618;52.018;5.576;2022-10-28T12:43:58;7.18;;;3.00;;
67819;SDS011;54618;52.018;5.576;2022-10-28T12:46:43;8.70;;;3.30;;
67819;SDS011;54618;52.018;5.576;2022-10-28T12:49:17;5.85;;;2.70;;
67819;SDS011;54618;52.018;5.576;2022-10-28T12:51:48;8.25;;;2.75;;
67819;SDS011;54618;52.018;5.576;2022-10-28T12:57:25;7.47;;;2.70;;
67819;SDS011;54618;52.018;5.576;2022-10-28T12:59:58;7.45;;;3.17;;
67819;SDS011;54618;52.018;5.576;2022-10-28T13:02:33;6.55;;;2.67;;
67819;SDS011;54618;52.018;5.576;2022-10-28T13:05:07;6.55;;;2.42;;
67819;SDS011;54618;52.018;5.576;2022-10-28T13:08:08;8.98;;;3.05;;
67819;SDS011;54618;52.018;5.576;2022-10-28T13:13:34;13.32;;;4.00;;
67819;SDS011;54618;52.018;5.576;2022-10-28T13:18:54;11.15;;;3.75;;
67819;SDS011;54618;52.018;5.576;2022-10-28T13:26:41;12.20;;;4.05;;
67819;SDS011;54618;52.018;5.576;2022-10-28T13:29:28;6.75;;;3.40;;
67819;SDS011;54618;52.018;5.576;2022-10-28T13:31:56;11.05;;;3.33;;
67819;SDS011;54618;52.018;5.576;2022-10-28T13:34:29;10.13;;;3.30;;
67819;SDS011;54618;52.018;5.576;2022-10-28T13:37:01;9.48;;;3.58;;
67819;SDS011;54618;52.018;5.576;2022-10-28T13:44:47;7.40;;;3.28;;
67819;SDS011;54618;52.018;5.576;2022-10-28T13:52:34;12.32;;;4.00;;
67819;SDS011;54618;52.018;5.576;2022-10-28T13:55:21;9.50;;;3.70;;
67819;SDS011;54618;52.018;5.576;2022-10-28T13:57:57;8.55;;;3.58;;
67819;SDS011;54618;52.018;5.576;2022-10-28T14:05:39;9.68;;;3.95;;
67819;SDS011;54618;52.018;5.576;2022-10-28T14:08:16;10.60;;;3.58;;
67819;SDS011;54618;52.018;5.576;2022-10-28T14:11:00;10.98;;;4.30;;
67819;SDS011;54618;52.018;5.576;2022-10-28T14:13:37;9.70;;;4.13;;
67819;SDS011;54618;52.018;5.576;2022-10-28T14:22:00;9.90;;;3.75;;
67819;SDS011;54618;52.018;5.576;2022-10-28T14:24:30;10.07;;;4.20;;
67819;SDS011;54618;52.018;5.576;2022-10-28T14:35:18;8.27;;;3.95;;
67819;SDS011;54618;52.018;5.576;2022-10-28T14:40:46;13.23;;;3.95;;
67819;SDS011;54618;52.018;5.576;2022-10-28T14:44:34;11.10;;;3.60;;
67819;SDS011;54618;52.018;5.576;2022-10-28T14:49:03;12.52;;;3.85;;
67819;SDS011;54618;52.018;5.576;2022-10-28T14:51:40;8.48;;;3.67;;
67819;SDS011;54618;52.018;5.576;2022-10-28T14:54:08;8.63;;;3.53;;
67819;SDS011;54618;52.018;5.576;2022-10-28T14:56:40;11.98;;;4.13;;
67819;SDS011;54618;52.018;5.576;2022-10-28T15:02:32;12.70;;;3.83;;
67819;SDS011;54618;52.018;5.576;2022-10-28T15:04:40;7.75;;;3.78;;
67819;SDS011;54618;52.018;5.576;2022-10-28T15:07:12;10.07;;;3.60;;
67819;SDS011;54618;52.018;5.576;2022-10-28T15:09:40;7.15;;;3.47;;
67819;SDS011;54618;52.018;5.576;2022-10-28T15:12:11;6.65;;;3.17;;
67819;SDS011;54618;52.018;5.576;2022-10-28T15:14:49;10.15;;;3.60;;
67819;SDS011;54618;52.018;5.576;2022-10-28T15:17:17;10.35;;;3.78;;
67819;SDS011;54618;52.018;5.576;2022-10-28T15:19:45;6.72;;;3.40;;
67819;SDS011;54618;52.018;5.576;2022-10-28T15:25:10;7.38;;;3.42;;
67819;SDS011;54618;52.018;5.576;2022-10-28T15:27:38;10.95;;;3.60;;
67819;SDS011;54618;52.018;5.576;2022-10-28T15:30:12;9.20;;;4.05;;
67819;SDS011;54618;52.018;5.576;2022-10-28T15:32:42;10.43;;;3.72;;
67819;SDS011;54618;52.018;5.576;2022-10-28T15:37:52;10.80;;;3.70;;
67819;SDS011;54618;52.018;5.576;2022-10-28T15:40:25;9.85;;;4.10;;
67819;SDS011;54618;52.018;5.576;2022-10-28T15:43:02;11.40;;;4.20;;
67819;SDS011;54618;52.018;5.576;2022-10-28T15:45:41;11.23;;;3.88;;
67819;SDS011;54618;52.018;5.576;2022-10-28T15:48:10;11.27;;;3.90;;
67819;SDS011;54618;52.018;5.576;2022-10-28T15:50:38;11.38;;;4.10;;
67819;SDS011;54618;52.018;5.576;2022-10-28T15:55:37;8.68;;;4.07;;
67819;SDS011;54618;52.018;5.576;2022-10-28T16:00:49;8.70;;;3.80;;
67819;SDS011;54618;52.018;5.576;2022-10-28T16:03:25;10.65;;;3.92;;
67819;SDS011;54618;52.018;5.576;2022-10-28T16:06:03;7.75;;;3.45;;
67819;SDS011;54618;52.018;5.576;2022-10-28T16:08:29;8.43;;;3.55;;
67819;SDS011;54618;52.018;5.576;2022-10-28T16:11:00;13.80;;;3.78;;
67819;SDS011;54618;52.018;5.576;2022-10-28T16:13:29;10.27;;;3.80;;
67819;SDS011;54618;52.018;5.576;2022-10-28T16:18:34;7.30;;;3.60;;
67819;SDS011;54618;52.018;5.576;2022-10-28T16:21:07;9.80;;;3.70;;
67819;SDS011;54618;52.018;5.576;2022-10-28T16:23:41;7.97;;;3.47;;
67819;SDS011;54618;52.018;5.576;2022-10-28T16:26:09;7.35;;;3.30;;
67819;SDS011;54618;52.018;5.576;2022-10-28T16:28:35;8.52;;;3.70;;
67819;SDS011;54618;52.018;5.576;2022-10-28T16:31:01;8.48;;;3.75;;
67819;SDS011;54618;52.018;5.576;2022-10-28T16:33:31;6.28;;;3.25;;
67819;SDS011;54618;52.018;5.576;2022-10-28T16:35:58;8.60;;;3.90;;
67819;SDS011;54618;52.018;5.576;2022-10-28T16:38:26;10.52;;;3.90;;
67819;SDS011;54618;52.018;5.576;2022-10-28T16:40:53;7.95;;;3.95;;
67819;SDS011;54618;52.018;5.576;2022-10-28T16:43:20;8.32;;;3.38;;
67819;SDS011;54618;52.018;5.576;2022-10-28T16:45:47;9.27;;;3.97;;
67819;SDS011;54618;52.018;5.576;2022-10-28T16:48:14;10.30;;;3.92;;
67819;SDS011;54618;52.018;5.576;2022-10-28T16:50:48;10.93;;;3.75;;
67819;SDS011;54618;52.018;5.576;2022-10-28T16:53:15;8.38;;;3.60;;
67819;SDS011;54618;52.018;5.576;2022-10-28T16:55:41;10.57;;;4.00;;
67819;SDS011;54618;52.018;5.576;2022-10-28T16:58:07;9.13;;;3.50;;
67819;SDS011;54618;52.018;5.576;2022-10-28T17:00:32;6.72;;;3.30;;
67819;SDS011;54618;52.018;5.576;2022-10-28T17:02:58;8.20;;;3.40;;
67819;SDS011;54618;52.018;5.576;2022-10-28T17:05:24;9.88;;;3.60;;
67819;SDS011;54618;52.018;5.576;2022-10-28T17:07:50;5.70;;;3.08;;
67819;SDS011;54618;52.018;5.576;2022-10-28T17:10:19;8.27;;;3.38;;
67819;SDS011;54618;52.018;5.576;2022-10-28T17:12:45;7.63;;;3.58;;
67819;SDS011;54618;52.018;5.576;2022-10-28T17:15:11;7.57;;;3.60;;
67819;SDS011;54618;52.018;5.576;2022-10-28T17:17:36;8.82;;;3.38;;
67819;SDS011;54618;52.018;5.576;2022-10-28T17:20:02;9.57;;;3.60;;
67819;SDS011;54618;52.018;5.576;2022-10-28T17:22:28;7.82;;;3.50;;
67819;SDS011;54618;52.018;5.576;2022-10-28T17:24:54;7.70;;;3.35;;
67819;SDS011;54618;52.018;5.576;2022-10-28T17:27:19;7.82;;;3.55;;
67819;SDS011;54618;52.018;5.576;2022-10-28T17:29:45;10.35;;;3.60;;
67819;SDS011;54618;52.018;5.576;2022-10-28T17:32:10;8.38;;;4.03;;
67819;SDS011;54618;52.018;5.576;2022-10-28T17:34:36;5.03;;;2.92;;
67819;SDS011;54618;52.018;5.576;2022-10-28T17:37:02;7.35;;;3.25;;
67819;SDS011;54618;52.018;5.576;2022-10-28T17:39:28;6.65;;;3.20;;
67819;SDS011;54618;52.018;5.576;2022-10-28T17:41:54;6.82;;;3.17;;
67819;SDS011;54618;52.018;5.576;2022-10-28T17:44:20;7.22;;;3.40;;
67819;SDS011;54618;52.018;5.576;2022-10-28T17:46:48;6.68;;;3.15;;
67819;SDS011;54618;52.018;5.576;2022-10-28T17:49:15;9.73;;;3.53;;
67819;SDS011;54618;52.018;5.576;2022-10-28T17:51:40;7.13;;;3.20;;
67819;SDS011;54618;52.018;5.576;2022-10-28T17:54:06;8.35;;;2.90;;